Time;durP1;ratioP1;P1;durP2;ratioP2;P2;SDS_P1;SDS_P2;PMS_P1;PMS_P2;Temp;Humidity;BMP_temperature;BMP_pressure;BME280_temperature;BME280_humidity;BME280_pressure;Samples;Min_cycle;Max_cycle;Signal;HPM_P1;HPM_P2
2023/04/08 00:00:11;;;;;;;25.90;23.10;;;;;;;;;;504718;28;1312;-78
2023/04/08 00:00:27;;;;;;;24.77;22.10;;;;;;;;;;504892;28;1516;-78
2023/04/08 00:00:43;;;;;;;24.83;22.15;;;;;;;;;;505645;28;1017;-77
2023/04/08 00:01:04;;;;;;;25.83;23.02;;;;;;;;;;506581;28;1629;-78
2023/04/08 00:01:25;;;;;;;27.35;23.48;;;;;;;;;;507287;28;1170;-78
2023/04/08 00:01:44;;;;;;;27.30;23.40;;;;;;;;;;506670;28;1348;-78
2023/04/08 00:02:00;;;;;;;27.08;23.55;;;;;;;;;;506853;28;1431;-78
2023/04/08 00:02:16;;;;;;;27.33;24.10;;;;;;;;;;507057;28;1280;-77
2023/04/08 00:02:37;;;;;;;27.80;24.42;;;;;;;;;;505389;28;1166;-78
2023/04/08 00:02:59;;;;;;;28.27;23.70;;;;;;;;;;506067;28;1350;-78
2023/04/08 00:03:14;;;;;;;27.83;23.40;;;;;;;;;;504875;28;1519;-78
2023/04/08 00:03:31;;;;;;;26.33;22.97;;;;;;;;;;504633;28;920;-78
2023/04/08 00:03:46;;;;;;;26.05;23.25;;;;;;;;;;506550;28;1353;-78
2023/04/08 00:04:04;;;;;;;26.03;23.23;;;;;;;;;;505409;28;1242;-78
2023/04/08 00:04:38;;;;;;;25.67;22.98;;;;;;;;;;506114;28;1534;-78
2023/04/08 00:04:54;;;;;;;24.33;21.73;;;;;;;;;;504314;28;1406;-78
2023/04/08 00:05:10;;;;;;;25.45;22.73;;;;;;;;;;505219;28;1064;-78
2023/04/08 00:05:25;;;;;;;27.90;23.75;;;;;;;;;;505118;28;1320;-77
2023/04/08 00:05:41;;;;;;;28.33;23.63;;;;;;;;;;506571;28;1413;-77
2023/04/08 00:06:02;;;;;;;26.58;23.63;;;;;;;;;;507969;28;1227;-78
2023/04/08 00:06:23;;;;;;;26.80;23.92;;;;;;;;;;506967;28;995;-78
2023/04/08 00:06:39;;;;;;;26.85;23.95;;;;;;;;;;507198;28;1138;-78
2023/04/08 00:06:55;;;;;;;26.35;23.55;;;;;;;;;;504512;28;1280;-78
2023/04/08 00:07:10;;;;;;;24.77;22.25;;;;;;;;;;504480;28;1063;-78
2023/04/08 00:07:28;;;;;;;23.73;21.43;;;;;;;;;;504903;28;1315;-78
2023/04/08 00:07:44;;;;;;;24.13;21.63;;;;;;;;;;502753;28;1997;-78
2023/04/08 00:08:00;;;;;;;25.10;22.43;;;;;;;;;;505328;28;1264;-78
2023/04/08 00:08:21;;;;;;;26.00;23.20;;;;;;;;;;507156;28;1116;-78
2023/04/08 00:08:37;;;;;;;24.77;22.13;;;;;;;;;;507034;28;1249;-78
2023/04/08 00:08:52;;;;;;;23.35;20.95;;;;;;;;;;507204;28;1479;-77
2023/04/08 00:09:07;;;;;;;24.77;22.13;;;;;;;;;;507144;28;1351;-78
2023/04/08 00:10:02;;;;;;;27.25;24.08;;;;;;;;;;504158;28;1354;-77
2023/04/08 00:10:18;;;;;;;26.52;23.75;;;;;;;;;;506077;28;1960;-78
2023/04/08 00:10:37;;;;;;;25.92;23.23;;;;;;;;;;506153;28;1316;-78
2023/04/08 00:10:55;;;;;;;25.90;23.10;;;;;;;;;;507484;28;947;-77
2023/04/08 00:11:10;;;;;;;25.17;22.48;;;;;;;;;;509512;28;2017;-77
2023/04/08 00:11:25;;;;;;;24.63;22.13;;;;;;;;;;508834;28;1201;-78
2023/04/08 00:11:51;;;;;;;24.40;22.00;;;;;;;;;;506982;28;1310;-78
2023/04/08 00:12:10;;;;;;;24.75;22.15;;;;;;;;;;505142;28;1278;-77
2023/04/08 00:12:30;;;;;;;24.80;22.20;;;;;;;;;;505549;28;1285;-78
2023/04/08 00:12:52;;;;;;;25.77;22.90;;;;;;;;;;504832;28;1438;-78
2023/04/08 00:13:07;;;;;;;29.52;24.30;;;;;;;;;;505395;28;1484;-78
2023/04/08 00:13:36;;;;;;;;;;;;;;;;;;;;;
2023/04/08 00:13:52;;;;;;;25.90;23.10;;;;;;;;;;507998;28;1056;-77
2023/04/08 00:14:07;;;;;;;25.63;22.98;;;;;;;;;;509488;28;1386;-77
2023/04/08 00:14:22;;;;;;;26.83;23.27;;;;;;;;;;507719;28;974;-77
2023/04/08 00:14:41;;;;;;;26.90;23.05;;;;;;;;;;505226;28;1277;-77
2023/04/08 00:14:56;;;;;;;26.42;23.38;;;;;;;;;;505455;28;1365;-77
2023/04/08 00:16:11;;;;;;;28.60;24.10;;;;;;;;;;501504;29;937;-77
2023/04/08 00:16:52;;;;;;;25.77;22.48;;;;;;;;;;500691;29;1234;-77
2023/04/08 00:17:08;;;;;;;25.73;23.02;;;;;;;;;;498052;29;1436;-78
2023/04/08 00:17:25;;;;;;;26.20;23.40;;;;;;;;;;496807;29;1264;-77
2023/04/08 00:17:44;;;;;;;25.92;22.83;;;;;;;;;;496331;29;1443;-78
2023/04/08 00:18:00;;;;;;;27.42;23.95;;;;;;;;;;496783;29;1377;-77
2023/04/08 00:19:05;;;;;;;27.23;24.23;;;;;;;;;;498800;29;1114;-77
2023/04/08 00:19:24;;;;;;;27.60;24.10;;;;;;;;;;500565;29;1314;-77
2023/04/08 00:19:47;;;;;;;28.40;23.88;;;;;;;;;;497716;29;1423;-77
2023/04/08 00:20:04;;;;;;;27.05;24.10;;;;;;;;;;495677;29;1329;-77
2023/04/08 00:20:21;;;;;;;26.35;23.55;;;;;;;;;;499975;29;1166;-78
2023/04/08 00:20:37;;;;;;;25.98;23.23;;;;;;;;;;500006;29;1575;-78
2023/04/08 00:20:53;;;;;;;25.55;22.85;;;;;;;;;;499133;29;1253;-78
2023/04/08 00:21:08;;;;;;;26.20;23.40;;;;;;;;;;500581;29;1303;-77
2023/04/08 00:21:24;;;;;;;28.33;24.08;;;;;;;;;;499038;29;1290;-78
2023/04/08 00:21:48;;;;;;;27.73;23.50;;;;;;;;;;501852;29;1686;-77
2023/04/08 00:22:04;;;;;;;27.90;23.77;;;;;;;;;;501897;28;1293;-77
2023/04/08 00:22:22;;;;;;;27.42;23.65;;;;;;;;;;498399;29;1450;-78
2023/04/08 00:22:41;;;;;;;26.15;23.05;;;;;;;;;;497337;29;1433;-78
2023/04/08 00:22:59;;;;;;;27.75;23.35;;;;;;;;;;498017;29;1280;-77
2023/04/08 00:23:15;;;;;;;29.88;24.85;;;;;;;;;;500354;29;1007;-77
2023/04/08 00:23:34;;;;;;;31.13;25.65;;;;;;;;;;500029;29;975;-77
2023/04/08 00:23:51;;;;;;;28.73;24.80;;;;;;;;;;499160;29;1474;-77
2023/04/08 00:24:06;;;;;;;26.45;23.65;;;;;;;;;;499096;29;978;-78
2023/04/08 00:24:25;;;;;;;26.23;23.42;;;;;;;;;;502505;28;1388;-78
2023/04/08 00:24:40;;;;;;;25.92;23.10;;;;;;;;;;502375;28;1117;-78
2023/04/08 00:25:08;;;;;;;26.95;23.17;;;;;;;;;;503066;28;1174;-77
2023/04/08 00:25:29;;;;;;;28.15;23.98;;;;;;;;;;501937;28;1317;-77
2023/04/08 00:25:44;;;;;;;27.15;23.88;;;;;;;;;;499950;28;1321;-78
2023/04/08 00:26:00;;;;;;;26.43;23.53;;;;;;;;;;498507;28;939;-78
2023/04/08 00:26:29;;;;;;;;;;;;;;;;;;;;;
2023/04/08 00:26:45;;;;;;;25.90;23.00;;;;;;;;;;501237;28;1224;-77
2023/04/08 00:27:01;;;;;;;26.90;23.58;;;;;;;;;;500110;29;1246;-76
2023/04/08 00:27:17;;;;;;;28.27;24.35;;;;;;;;;;501869;28;1403;-77
2023/04/08 00:27:38;;;;;;;27.13;24.17;;;;;;;;;;502146;28;1059;-77
2023/04/08 00:28:02;;;;;;;26.80;23.80;;;;;;;;;;499502;29;1172;-77
2023/04/08 00:28:18;;;;;;;28.65;24.45;;;;;;;;;;499921;29;1356;-77
2023/04/08 00:28:36;;;;;;;28.70;24.50;;;;;;;;;;500719;29;1447;-77
2023/04/08 00:29:11;;;;;;;28.45;24.77;;;;;;;;;;498299;29;1480;-77
2023/04/08 00:29:27;;;;;;;27.98;24.70;;;;;;;;;;498562;29;1633;-76
2023/04/08 00:29:46;;;;;;;28.02;24.75;;;;;;;;;;498693;29;1674;-77
2023/04/08 00:30:04;;;;;;;28.42;24.55;;;;;;;;;;498820;29;1361;-77
2023/04/08 00:30:22;;;;;;;28.38;24.20;;;;;;;;;;500378;29;2762;-76
2023/04/08 00:30:43;;;;;;;31.42;25.60;;;;;;;;;;501319;28;1464;-77
2023/04/08 00:30:59;;;;;;;30.98;26.27;;;;;;;;;;502839;28;1131;-77
2023/04/08 00:31:20;;;;;;;28.37;25.17;;;;;;;;;;503795;28;1967;-77
2023/04/08 00:31:36;;;;;;;27.75;24.73;;;;;;;;;;503357;28;1075;-77
2023/04/08 00:31:54;;;;;;;29.45;24.80;;;;;;;;;;504097;28;1167;-77
2023/04/08 00:32:09;;;;;;;29.88;24.67;;;;;;;;;;503659;28;1066;-77
2023/04/08 00:32:45;;;;;;;28.47;25.00;;;;;;;;;;503796;28;1527;-77
2023/04/08 00:33:01;;;;;;;29.55;24.80;;;;;;;;;;503332;28;1174;-76
2023/04/08 00:33:29;;;;;;;29.10;24.95;;;;;;;;;;504837;28;1399;-77
2023/04/08 00:33:44;;;;;;;27.63;24.40;;;;;;;;;;502462;28;936;-77
2023/04/08 00:34:00;;;;;;;29.43;24.93;;;;;;;;;;501590;28;2377;-77
2023/04/08 00:34:21;;;;;;;28.45;25.15;;;;;;;;;;502698;28;1082;-77
2023/04/08 00:34:37;;;;;;;27.50;24.60;;;;;;;;;;498573;29;1445;-77
2023/04/08 00:34:58;;;;;;;27.67;24.67;;;;;;;;;;496232;29;1290;-77
2023/04/08 00:35:55;;;;;;;29.63;25.73;;;;;;;;;;495668;29;1278;-77
2023/04/08 00:36:10;;;;;;;29.15;25.90;;;;;;;;;;497317;29;1409;-77
2023/04/08 00:37:10;;;;;;;27.70;24.83;;;;;;;;;;495921;29;1306;-77
2023/04/08 00:37:48;;;;;;;27.88;24.88;;;;;;;;;;500397;29;1179;-77
2023/04/08 00:38:24;;;;;;;28.40;24.83;;;;;;;;;;498422;29;1500;-77
2023/04/08 00:38:40;;;;;;;28.77;25.65;;;;;;;;;;501264;29;1279;-77
2023/04/08 00:39:58;;;;;;;30.13;26.33;;;;;;;;;;498611;29;1147;-77
2023/04/08 00:40:02;;;;;;;27.73;24.77;;;;;;;;;;492946;29;977;-77
2023/04/08 00:40:21;;;;;;;30.23;25.92;;;;;;;;;;499930;29;1417;-77
2023/04/08 00:40:37;;;;;;;29.80;25.88;;;;;;;;;;499763;29;1423;-77
2023/04/08 00:40:52;;;;;;;31.10;25.63;;;;;;;;;;499444;29;1441;-77
2023/04/08 00:41:08;;;;;;;30.25;25.45;;;;;;;;;;499551;29;1313;-77
2023/04/08 00:41:23;;;;;;;28.67;25.53;;;;;;;;;;500543;29;1066;-77
2023/04/08 00:41:44;;;;;;;28.63;25.52;;;;;;;;;;501193;29;1495;-77
2023/04/08 00:42:00;;;;;;;30.13;26.05;;;;;;;;;;501331;28;1422;-78
2023/04/08 00:42:16;;;;;;;30.23;26.05;;;;;;;;;;502717;28;1482;-77
2023/04/08 00:42:34;;;;;;;30.70;25.77;;;;;;;;;;502489;28;1154;-77
2023/04/08 00:42:55;;;;;;;30.60;25.80;;;;;;;;;;502055;28;1660;-77
2023/04/08 00:43:11;;;;;;;32.45;27.63;;;;;;;;;;498707;29;1266;-77
2023/04/08 00:43:29;;;;;;;33.08;27.65;;;;;;;;;;498738;29;1478;-77
2023/04/08 00:43:51;;;;;;;32.13;27.15;;;;;;;;;;497793;29;1645;-77
2023/04/08 00:44:07;;;;;;;29.55;26.00;;;;;;;;;;499789;28;1393;-77
2023/04/08 00:44:34;;;;;;;29.13;25.73;;;;;;;;;;498954;29;1393;-77
2023/04/08 00:44:55;;;;;;;28.63;25.17;;;;;;;;;;501036;28;1571;-77
2023/04/08 00:45:12;;;;;;;29.40;26.05;;;;;;;;;;500668;28;1213;-77
2023/04/08 00:45:27;;;;;;;31.35;26.60;;;;;;;;;;501084;28;1292;-76
2023/04/08 00:45:46;;;;;;;31.02;26.13;;;;;;;;;;501156;28;1075;-77
2023/04/08 00:46:02;;;;;;;29.45;26.05;;;;;;;;;;501964;28;1381;-76
2023/04/08 00:46:20;;;;;;;28.90;25.80;;;;;;;;;;502355;28;1355;-76
2023/04/08 00:46:40;;;;;;;29.13;25.92;;;;;;;;;;499066;29;1405;-77
2023/04/08 00:46:59;;;;;;;29.60;26.25;;;;;;;;;;500220;29;1068;-77
2023/04/08 00:47:17;;;;;;;30.25;25.90;;;;;;;;;;496920;29;1348;-77
2023/04/08 00:47:34;;;;;;;29.88;25.90;;;;;;;;;;496878;29;1331;-77
2023/04/08 00:47:52;;;;;;;31.75;26.48;;;;;;;;;;495963;29;1332;-77
2023/04/08 00:48:08;;;;;;;31.38;26.92;;;;;;;;;;499222;29;1606;-78
2023/04/08 00:48:36;;;;;;;;;;;;;;;;;;;;;
2023/04/08 00:48:53;;;;;;;30.63;26.23;;;;;;;;;;502541;28;1407;-77
2023/04/08 00:49:11;;;;;;;30.65;26.45;;;;;;;;;;502315;28;2196;-77
2023/04/08 00:49:32;;;;;;;30.35;26.52;;;;;;;;;;503878;28;1211;-77
2023/04/08 00:50:09;;;;;;;30.90;26.17;;;;;;;;;;502466;28;1133;-77
2023/04/08 00:50:25;;;;;;;32.42;27.48;;;;;;;;;;504978;28;1602;-77
2023/04/08 00:50:51;;;;;;;31.58;27.90;;;;;;;;;;503700;28;1185;-76
2023/04/08 00:51:07;;;;;;;31.75;27.75;;;;;;;;;;504106;28;946;-76
2023/04/08 00:51:26;;;;;;;32.70;27.52;;;;;;;;;;503690;28;1980;-76
2023/04/08 00:51:41;;;;;;;34.95;28.20;;;;;;;;;;501657;28;1466;-77
2023/04/08 00:52:03;;;;;;;35.10;28.67;;;;;;;;;;501834;28;1011;-77
2023/04/08 00:52:21;;;;;;;33.95;28.38;;;;;;;;;;503831;28;1187;-76
2023/04/08 00:52:37;;;;;;;33.88;28.13;;;;;;;;;;502890;28;1511;-76
2023/04/08 00:52:52;;;;;;;33.25;28.20;;;;;;;;;;501144;28;1764;-76
2023/04/08 00:53:08;;;;;;;32.13;27.93;;;;;;;;;;503703;28;1103;-76
2023/04/08 00:54:06;;;;;;;32.55;27.48;;;;;;;;;;500346;28;1604;-77
2023/04/08 00:54:08;;;;;;;31.98;27.23;;;;;;;;;;501196;29;1501;-77
2023/04/08 00:54:31;;;;;;;32.97;27.67;;;;;;;;;;507866;28;1122;-77
2023/04/08 00:54:47;;;;;;;33.35;28.52;;;;;;;;;;506643;28;1546;-78
2023/04/08 00:55:05;;;;;;;32.40;28.33;;;;;;;;;;507067;28;1761;-76
2023/04/08 00:55:20;;;;;;;32.63;28.15;;;;;;;;;;507260;28;1367;-76
2023/04/08 00:55:58;;;;;;;32.85;28.45;;;;;;;;;;507742;28;1481;-77
2023/04/08 00:56:11;;;;;;;34.63;28.65;;;;;;;;;;508126;28;1187;-77
2023/04/08 00:56:30;;;;;;;33.97;28.92;;;;;;;;;;508178;28;1301;-77
2023/04/08 00:57:06;;;;;;;34.25;28.77;;;;;;;;;;509282;28;1356;-77
2023/04/08 00:57:24;;;;;;;35.45;29.65;;;;;;;;;;507757;28;1274;-76
2023/04/08 00:57:49;;;;;;;35.38;29.02;;;;;;;;;;508804;28;1463;-77
2023/04/08 00:58:04;;;;;;;34.38;28.98;;;;;;;;;;506179;28;1165;-77
2023/04/08 00:58:22;;;;;;;35.22;29.73;;;;;;;;;;506915;28;1312;-76
2023/04/08 00:58:49;;;;;;;36.55;30.27;;;;;;;;;;505751;28;1597;-77
2023/04/08 00:59:05;;;;;;;36.67;29.25;;;;;;;;;;504792;28;1174;-77
2023/04/08 00:59:27;;;;;;;37.03;29.97;;;;;;;;;;504381;28;1298;-77
2023/04/08 00:59:49;;;;;;;36.38;30.33;;;;;;;;;;503910;28;1423;-77
2023/04/08 01:00:05;;;;;;;37.45;29.83;;;;;;;;;;504972;28;1337;-77
2023/04/08 01:00:21;;;;;;;37.05;29.25;;;;;;;;;;503449;28;1373;-78
2023/04/08 01:00:54;;;;;;;37.67;30.03;;;;;;;;;;504559;28;1497;-78
2023/04/08 01:01:11;;;;;;;37.67;30.52;;;;;;;;;;504032;28;1553;-77
2023/04/08 01:02:05;;;;;;;37.83;30.75;;;;;;;;;;503375;28;1245;-77
2023/04/08 01:02:40;;;;;;;38.20;30.80;;;;;;;;;;503094;28;1424;-77
2023/04/08 01:03:01;;;;;;;38.88;30.95;;;;;;;;;;506345;28;1110;-77
2023/04/08 01:03:43;;;;;;;37.28;30.38;;;;;;;;;;507549;28;1154;-77
2023/04/08 01:04:06;;;;;;;38.20;31.52;;;;;;;;;;502840;28;1354;-77
2023/04/08 01:05:00;;;;;;;38.10;31.92;;;;;;;;;;502256;28;1444;-77
2023/04/08 01:05:13;;;;;;;38.47;30.50;;;;;;;;;;508598;28;1326;-77
2023/04/08 01:06:45;;;;;;;40.05;31.40;;;;;;;;;;501478;28;1281;-77
2023/04/08 01:07:23;;;;;;;39.05;31.30;;;;;;;;;;502457;28;1293;-77
2023/04/08 01:07:50;;;;;;;38.33;32.22;;;;;;;;;;509632;28;1306;-77
2023/04/08 01:08:07;;;;;;;40.25;32.28;;;;;;;;;;510037;28;1251;-77
2023/04/08 01:08:24;;;;;;;39.60;32.50;;;;;;;;;;508710;28;1703;-78
2023/04/08 01:08:52;;;;;;;39.22;31.90;;;;;;;;;;508413;28;1442;-77
2023/04/08 01:09:09;;;;;;;39.72;31.40;;;;;;;;;;509110;28;964;-77
2023/04/08 01:09:29;;;;;;;41.80;31.83;;;;;;;;;;507966;28;1636;-77
2023/04/08 01:09:52;;;;;;;41.63;31.73;;;;;;;;;;504777;28;1150;-78
2023/04/08 01:10:37;;;;;;;39.22;31.63;;;;;;;;;;505386;28;1291;-77
2023/04/08 01:10:54;;;;;;;38.08;31.80;;;;;;;;;;503893;28;955;-77
2023/04/08 01:11:10;;;;;;;37.13;31.25;;;;;;;;;;505415;28;1387;-77
2023/04/08 01:11:32;;;;;;;36.67;31.02;;;;;;;;;;506265;28;1938;-77
2023/04/08 01:11:55;;;;;;;38.22;31.48;;;;;;;;;;506400;28;951;-77
2023/04/08 01:12:15;;;;;;;38.38;31.27;;;;;;;;;;503125;28;1221;-77
2023/04/08 01:12:36;;;;;;;37.38;31.42;;;;;;;;;;504422;28;1287;-77
2023/04/08 01:13:04;;;;;;;36.80;31.33;;;;;;;;;;502357;28;1418;-77
2023/04/08 01:13:25;;;;;;;37.08;31.05;;;;;;;;;;505401;28;1312;-77
2023/04/08 01:13:42;;;;;;;35.92;30.45;;;;;;;;;;504628;28;1364;-77
2023/04/08 01:14:04;;;;;;;36.03;30.40;;;;;;;;;;505320;28;1394;-78
2023/04/08 01:14:26;;;;;;;38.22;30.60;;;;;;;;;;504773;28;1833;-77
2023/04/08 01:14:49;;;;;;;37.65;30.13;;;;;;;;;;503487;28;1235;-77
2023/04/08 01:15:06;;;;;;;36.08;30.13;;;;;;;;;;502481;28;1594;-78
2023/04/08 01:15:26;;;;;;;37.17;30.83;;;;;;;;;;502837;28;1346;-77
2023/04/08 01:16:05;;;;;;;35.60;30.25;;;;;;;;;;503476;28;1331;-78
2023/04/08 01:17:01;;;;;;;37.15;31.23;;;;;;;;;;496900;29;1270;-77
2023/04/08 01:17:18;;;;;;;37.25;30.70;;;;;;;;;;504343;28;1624;-77
2023/04/08 01:17:43;;;;;;;38.03;30.52;;;;;;;;;;506975;28;1254;-78
2023/04/08 01:18:00;;;;;;;39.85;31.17;;;;;;;;;;506619;28;1068;-77
2023/04/08 01:18:20;;;;;;;38.47;30.13;;;;;;;;;;507182;28;884;-77
2023/04/08 01:18:40;;;;;;;36.15;29.63;;;;;;;;;;506616;28;1337;-77
2023/04/08 01:19:04;;;;;;;36.20;29.92;;;;;;;;;;507411;28;2436;-77
2023/04/08 01:19:27;;;;;;;35.92;30.13;;;;;;;;;;507544;28;1121;-77
2023/04/08 01:19:46;;;;;;;36.40;30.05;;;;;;;;;;508888;28;1129;-78
2023/04/08 01:20:03;;;;;;;35.47;29.60;;;;;;;;;;506542;28;974;-77
2023/04/08 01:20:29;;;;;;;34.60;29.20;;;;;;;;;;507221;28;963;-78
2023/04/08 01:20:45;;;;;;;36.05;29.70;;;;;;;;;;506883;28;991;-79
2023/04/08 01:21:02;;;;;;;37.53;29.85;;;;;;;;;;508490;28;972;-77
2023/04/08 01:21:19;;;;;;;34.50;28.90;;;;;;;;;;505707;28;1068;-77
2023/04/08 01:21:41;;;;;;;36.33;29.58;;;;;;;;;;505159;28;1336;-78
2023/04/08 01:22:03;;;;;;;38.90;30.25;;;;;;;;;;506241;28;1154;-77
2023/04/08 01:22:27;;;;;;;36.80;29.52;;;;;;;;;;508660;28;1355;-77
2023/04/08 01:23:02;;;;;;;36.75;29.70;;;;;;;;;;508620;28;934;-78
2023/04/08 01:23:30;;;;;;;38.67;30.40;;;;;;;;;;512466;28;1287;-78
2023/04/08 01:23:46;;;;;;;35.58;30.00;;;;;;;;;;513053;28;1219;-77
2023/04/08 01:24:07;;;;;;;36.23;30.07;;;;;;;;;;512769;28;999;-77
2023/04/08 01:24:27;;;;;;;36.28;29.85;;;;;;;;;;510913;28;1431;-78
2023/04/08 01:24:56;;;;;;;33.55;28.88;;;;;;;;;;511029;28;1386;-77
2023/04/08 01:25:15;;;;;;;35.05;29.98;;;;;;;;;;511078;28;1070;-77
2023/04/08 01:25:57;;;;;;;34.05;29.58;;;;;;;;;;508559;28;1465;-77
2023/04/08 01:26:26;;;;;;;36.72;30.55;;;;;;;;;;505310;28;1420;-77
2023/04/08 01:26:42;;;;;;;35.92;29.42;;;;;;;;;;510872;28;894;-77
2023/04/08 01:27:03;;;;;;;35.85;29.67;;;;;;;;;;508342;28;1376;-77
2023/04/08 01:27:22;;;;;;;37.08;30.67;;;;;;;;;;509137;28;1138;-77
2023/04/08 01:27:38;;;;;;;35.03;29.45;;;;;;;;;;508668;28;1346;-77
2023/04/08 01:27:58;;;;;;;34.47;29.40;;;;;;;;;;506657;28;1523;-77
2023/04/08 01:28:21;;;;;;;34.45;29.65;;;;;;;;;;509156;28;1467;-77
2023/04/08 01:28:37;;;;;;;36.13;29.77;;;;;;;;;;508135;28;1437;-78
2023/04/08 01:29:01;;;;;;;35.45;29.17;;;;;;;;;;509035;28;1380;-77
2023/04/08 01:29:55;;;;;;;37.28;30.90;;;;;;;;;;504819;28;967;-78
2023/04/08 01:29:59;;;;;;;34.53;29.35;;;;;;;;;;510442;28;1326;-77
2023/04/08 01:30:12;;;;;;;37.30;30.42;;;;;;;;;;508677;28;1430;-77
2023/04/08 01:30:29;;;;;;;38.92;30.20;;;;;;;;;;511456;28;1753;-78
2023/04/08 01:30:47;;;;;;;37.40;30.55;;;;;;;;;;513487;28;1225;-77
2023/04/08 01:31:03;;;;;;;35.60;30.27;;;;;;;;;;513101;28;1308;-77
2023/04/08 01:31:25;;;;;;;35.10;29.83;;;;;;;;;;513498;28;1908;-77
2023/04/08 01:31:41;;;;;;;36.80;29.52;;;;;;;;;;512474;28;1140;-77
2023/04/08 01:32:03;;;;;;;37.28;29.13;;;;;;;;;;512340;28;1172;-77
2023/04/08 01:32:19;;;;;;;37.35;29.45;;;;;;;;;;512645;28;985;-77
2023/04/08 01:32:35;;;;;;;35.38;29.27;;;;;;;;;;511554;28;1266;-77
2023/04/08 01:33:13;;;;;;;36.63;29.92;;;;;;;;;;511545;28;1057;-77
2023/04/08 01:33:35;;;;;;;35.22;29.13;;;;;;;;;;504235;28;1250;-78
2023/04/08 01:34:09;;;;;;;35.25;28.98;;;;;;;;;;508812;28;1439;-77
2023/04/08 01:35:06;;;;;;;37.38;29.73;;;;;;;;;;509681;28;1467;-77
2023/04/08 01:35:26;;;;;;;36.75;29.65;;;;;;;;;;510938;28;1173;-78
2023/04/08 01:36:02;;;;;;;34.33;29.38;;;;;;;;;;509783;28;1252;-77
2023/04/08 01:36:40;;;;;;;36.80;30.30;;;;;;;;;;509902;28;1353;-78
2023/04/08 01:37:05;;;;;;;35.80;29.60;;;;;;;;;;510953;28;1037;-77
2023/04/08 01:37:24;;;;;;;37.75;29.55;;;;;;;;;;510468;28;941;-77
2023/04/08 01:38:00;;;;;;;39.35;29.83;;;;;;;;;;510411;28;1347;-77
2023/04/08 01:38:18;;;;;;;36.78;30.30;;;;;;;;;;511882;28;1057;-77
2023/04/08 01:38:34;;;;;;;37.40;30.05;;;;;;;;;;509201;28;1376;-77
2023/04/08 01:38:55;;;;;;;36.92;29.83;;;;;;;;;;507816;28;1347;-77
2023/04/08 01:39:11;;;;;;;35.38;29.42;;;;;;;;;;507659;28;1392;-77
2023/04/08 01:39:35;;;;;;;36.10;29.70;;;;;;;;;;505253;28;1644;-77
2023/04/08 01:39:51;;;;;;;35.47;29.20;;;;;;;;;;506698;28;1034;-77
2023/04/08 01:40:07;;;;;;;35.53;29.45;;;;;;;;;;507663;28;1640;-77
2023/04/08 01:40:23;;;;;;;35.53;29.55;;;;;;;;;;509019;28;1357;-77
2023/04/08 01:40:48;;;;;;;36.53;29.90;;;;;;;;;;507670;28;1735;-77
2023/04/08 01:41:04;;;;;;;36.58;29.50;;;;;;;;;;507762;28;1195;-77
2023/04/08 01:41:20;;;;;;;36.67;29.40;;;;;;;;;;508274;28;1283;-77
2023/04/08 01:41:41;;;;;;;38.05;29.05;;;;;;;;;;506348;28;1598;-78
2023/04/08 01:41:58;;;;;;;37.17;29.05;;;;;;;;;;506013;28;1313;-77
2023/04/08 01:42:16;;;;;;;35.72;29.13;;;;;;;;;;506021;28;1408;-77
2023/04/08 01:42:32;;;;;;;35.55;29.13;;;;;;;;;;506605;28;1139;-78
2023/04/08 01:42:55;;;;;;;34.45;28.55;;;;;;;;;;505321;28;1500;-77
2023/04/08 01:43:13;;;;;;;35.28;28.70;;;;;;;;;;505633;28;1211;-77
2023/04/08 01:43:33;;;;;;;38.10;29.27;;;;;;;;;;505117;28;1451;-77
2023/04/08 01:43:50;;;;;;;36.80;28.63;;;;;;;;;;504827;28;1475;-77
2023/04/08 01:44:05;;;;;;;36.05;28.75;;;;;;;;;;504839;28;1210;-79
2023/04/08 01:44:27;;;;;;;35.57;28.83;;;;;;;;;;504963;28;1402;-77
2023/04/08 01:44:43;;;;;;;35.20;28.90;;;;;;;;;;506329;28;1140;-77
2023/04/08 01:45:05;;;;;;;36.20;29.17;;;;;;;;;;507463;28;1591;-78
2023/04/08 01:45:24;;;;;;;37.33;29.17;;;;;;;;;;510636;28;1032;-77
2023/04/08 01:45:43;;;;;;;36.50;29.23;;;;;;;;;;509118;28;1455;-77
2023/04/08 01:45:59;;;;;;;35.55;28.35;;;;;;;;;;508559;28;1776;-77
2023/04/08 01:47:03;;;;;;;38.37;29.03;;;;;;;;;;508081;28;1395;-77
2023/04/08 01:47:12;;;;;;;36.70;28.83;;;;;;;;;;500315;29;1286;-79
2023/04/08 01:47:31;;;;;;;36.83;29.00;;;;;;;;;;508532;28;1339;-78
2023/04/08 01:47:48;;;;;;;36.80;28.90;;;;;;;;;;508361;28;1589;-77
2023/04/08 01:48:03;;;;;;;36.88;29.05;;;;;;;;;;508515;28;1287;-78
2023/04/08 01:48:19;;;;;;;37.13;29.43;;;;;;;;;;510375;28;1125;-78
2023/04/08 01:48:35;;;;;;;37.70;29.83;;;;;;;;;;510269;28;959;-78
2023/04/08 01:48:54;;;;;;;36.88;29.20;;;;;;;;;;507683;28;1374;-78
2023/04/08 01:49:10;;;;;;;37.92;29.05;;;;;;;;;;504214;28;1460;-77
2023/04/08 01:49:48;;;;;;;37.15;29.85;;;;;;;;;;506753;28;1314;-78
2023/04/08 01:50:05;;;;;;;38.42;29.33;;;;;;;;;;509051;28;1522;-77
2023/04/08 01:50:27;;;;;;;36.60;28.85;;;;;;;;;;507201;28;1305;-77
2023/04/08 01:51:03;;;;;;;36.30;28.83;;;;;;;;;;505649;28;1245;-77
2023/04/08 01:51:38;;;;;;;38.88;28.38;;;;;;;;;;506685;28;1912;-77
2023/04/08 01:52:04;;;;;;;36.88;28.52;;;;;;;;;;502219;28;1134;-77
2023/04/08 01:52:24;;;;;;;37.38;29.85;;;;;;;;;;510493;28;1112;-77
2023/04/08 01:52:52;;;;;;;;;;;;;;;;;;;;;
2023/04/08 01:53:08;;;;;;;37.22;28.67;;;;;;;;;;510767;28;1157;-78
2023/04/08 01:53:27;;;;;;;37.72;29.10;;;;;;;;;;510370;28;1275;-77
2023/04/08 01:53:43;;;;;;;36.38;29.45;;;;;;;;;;509295;28;1477;-78
2023/04/08 01:53:58;;;;;;;36.22;29.23;;;;;;;;;;506693;28;1236;-77
2023/04/08 01:54:14;;;;;;;35.23;29.00;;;;;;;;;;508327;28;1081;-77
2023/04/08 01:54:29;;;;;;;36.60;29.67;;;;;;;;;;507550;28;1783;-78
2023/04/08 01:54:46;;;;;;;37.65;30.05;;;;;;;;;;506073;28;1531;-77
2023/04/08 01:55:01;;;;;;;37.50;29.55;;;;;;;;;;507773;28;1163;-77
2023/04/08 01:55:17;;;;;;;35.45;28.90;;;;;;;;;;508351;28;1372;-77
2023/04/08 01:55:59;;;;;;;35.33;28.70;;;;;;;;;;506822;28;1375;-77
2023/04/08 01:56:25;;;;;;;37.88;28.10;;;;;;;;;;501715;29;1562;-77
2023/04/08 01:56:41;;;;;;;35.55;28.98;;;;;;;;;;508987;28;1287;-77
2023/04/08 01:56:57;;;;;;;35.53;28.70;;;;;;;;;;506436;28;1332;-77
2023/04/08 01:57:18;;;;;;;35.33;28.23;;;;;;;;;;505585;28;1470;-77
2023/04/08 01:57:41;;;;;;;36.53;28.23;;;;;;;;;;504891;28;1214;-77
2023/04/08 01:57:58;;;;;;;37.95;28.65;;;;;;;;;;505387;28;1008;-77
2023/04/08 01:58:17;;;;;;;35.13;27.95;;;;;;;;;;506529;28;1058;-77
2023/04/08 01:58:39;;;;;;;32.80;27.15;;;;;;;;;;508043;28;1515;-77
2023/04/08 01:58:57;;;;;;;34.22;29.00;;;;;;;;;;510679;28;1066;-77
2023/04/08 01:59:14;;;;;;;37.50;29.63;;;;;;;;;;510691;28;1343;-77
2023/04/08 01:59:33;;;;;;;37.22;28.88;;;;;;;;;;513178;28;943;-78
2023/04/08 01:59:50;;;;;;;38.45;29.15;;;;;;;;;;510518;28;1346;-77
2023/04/08 02:00:10;;;;;;;38.67;29.63;;;;;;;;;;509334;28;1463;-78
2023/04/08 02:00:26;;;;;;;37.15;29.15;;;;;;;;;;509888;28;1065;-77
2023/04/08 02:00:52;;;;;;;37.22;28.92;;;;;;;;;;507081;28;1520;-77
2023/04/08 02:01:33;;;;;;;37.53;29.73;;;;;;;;;;508291;28;1643;-77
2023/04/08 02:01:49;;;;;;;38.22;29.20;;;;;;;;;;500184;28;1394;-77
2023/04/08 02:02:06;;;;;;;38.42;29.52;;;;;;;;;;499734;28;1420;-77
2023/04/08 02:02:25;;;;;;;39.28;29.90;;;;;;;;;;499989;29;1280;-77
2023/04/08 02:02:46;;;;;;;38.67;29.98;;;;;;;;;;501492;28;1521;-77
2023/04/08 02:03:02;;;;;;;39.25;29.23;;;;;;;;;;508960;28;950;-77
2023/04/08 02:03:19;;;;;;;39.65;30.23;;;;;;;;;;507622;28;1426;-77
2023/04/08 02:03:35;;;;;;;38.30;30.15;;;;;;;;;;505498;28;1279;-76
2023/04/08 02:03:59;;;;;;;38.72;29.88;;;;;;;;;;507011;28;1280;-77
2023/04/08 02:04:15;;;;;;;41.95;29.95;;;;;;;;;;507788;28;1328;-77
2023/04/08 02:04:42;;;;;;;40.50;29.60;;;;;;;;;;507147;28;1330;-77
2023/04/08 02:05:01;;;;;;;37.10;28.60;;;;;;;;;;505898;28;1684;-77
2023/04/08 02:06:01;;;;;;;37.78;29.63;;;;;;;;;;510413;28;1204;-77
2023/04/08 02:06:02;;;;;;;36.45;28.73;;;;;;;;;;509072;28;1697;-77
2023/04/08 02:06:22;;;;;;;35.70;29.45;;;;;;;;;;510559;28;1328;-77
2023/04/08 02:06:41;;;;;;;38.58;29.25;;;;;;;;;;508723;28;1213;-77
2023/04/08 02:07:00;;;;;;;40.40;29.23;;;;;;;;;;506467;28;1304;-77
2023/04/08 02:07:36;;;;;;;37.78;28.30;;;;;;;;;;508677;28;1178;-77
2023/04/08 02:07:51;;;;;;;40.03;28.83;;;;;;;;;;507161;28;1279;-77
2023/04/08 02:08:27;;;;;;;37.53;28.00;;;;;;;;;;507595;28;1620;-77
2023/04/08 02:09:01;;;;;;;36.20;27.30;;;;;;;;;;507884;28;1755;-76
2023/04/08 02:09:36;;;;;;;36.05;27.85;;;;;;;;;;511472;28;1329;-77
2023/04/08 02:09:55;;;;;;;37.33;28.08;;;;;;;;;;506736;28;1430;-78
2023/04/08 02:10:11;;;;;;;34.95;27.05;;;;;;;;;;509299;28;1517;-77
2023/04/08 02:10:32;;;;;;;34.05;26.40;;;;;;;;;;507698;28;1332;-77
2023/04/08 02:10:50;;;;;;;34.05;27.08;;;;;;;;;;505477;28;1591;-77
2023/04/08 02:11:06;;;;;;;34.38;27.10;;;;;;;;;;504533;28;1502;-77
2023/04/08 02:11:24;;;;;;;34.38;26.83;;;;;;;;;;505361;28;1897;-77
2023/04/08 02:11:40;;;;;;;35.42;27.02;;;;;;;;;;504774;28;1442;-77
2023/04/08 02:11:56;;;;;;;36.57;26.67;;;;;;;;;;504063;28;1125;-77